sensor_id;sensor_type;location;lat;lon;timestamp;P1;durP1;ratioP1;P2;durP2;ratioP2
72941;SDS011;69665;55.822;37.330;2023-09-19T00:00:57;17.13;;;8.88;;
72941;SDS011;69665;55.822;37.330;2023-09-19T00:03:23;15.57;;;8.60;;
72941;SDS011;69665;55.822;37.330;2023-09-19T00:05:49;15.77;;;8.60;;
72941;SDS011;69665;55.822;37.330;2023-09-19T00:08:15;16.85;;;8.32;;
72941;SDS011;69665;55.822;37.330;2023-09-19T00:10:41;18.13;;;8.98;;
72941;SDS011;69665;55.822;37.330;2023-09-19T00:13:07;17.52;;;8.95;;
72941;SDS011;69665;55.822;37.330;2023-09-19T00:15:42;16.63;;;8.65;;
72941;SDS011;69665;55.822;37.330;2023-09-19T00:18:08;14.75;;;8.52;;
72941;SDS011;69665;55.822;37.330;2023-09-19T00:20:40;17.33;;;7.70;;
72941;SDS011;69665;55.822;37.330;2023-09-19T00:23:13;14.27;;;8.13;;
72941;SDS011;69665;55.822;37.330;2023-09-19T00:25:39;15.15;;;8.05;;
72941;SDS011;69665;55.822;37.330;2023-09-19T00:28:05;15.52;;;8.38;;
72941;SDS011;69665;55.822;37.330;2023-09-19T00:30:32;17.30;;;9.15;;
72941;SDS011;69665;55.822;37.330;2023-09-19T00:32:59;16.83;;;8.40;;
72941;SDS011;69665;55.822;37.330;2023-09-19T00:35:25;15.10;;;8.32;;
72941;SDS011;69665;55.822;37.330;2023-09-19T00:37:52;16.45;;;7.60;;
72941;SDS011;69665;55.822;37.330;2023-09-19T00:40:18;18.38;;;8.95;;
72941;SDS011;69665;55.822;37.330;2023-09-19T00:42:45;15.57;;;7.75;;
72941;SDS011;69665;55.822;37.330;2023-09-19T00:45:11;17.67;;;8.30;;
72941;SDS011;69665;55.822;37.330;2023-09-19T00:47:39;17.65;;;9.15;;
72941;SDS011;69665;55.822;37.330;2023-09-19T00:50:05;15.52;;;8.07;;
72941;SDS011;69665;55.822;37.330;2023-09-19T00:52:35;16.20;;;8.35;;
72941;SDS011;69665;55.822;37.330;2023-09-19T00:55:07;16.95;;;8.80;;
72941;SDS011;69665;55.822;37.330;2023-09-19T00:57:33;13.52;;;8.32;;
72941;SDS011;69665;55.822;37.330;2023-09-19T00:59:59;17.35;;;8.68;;
72941;SDS011;69665;55.822;37.330;2023-09-19T01:02:25;17.40;;;8.13;;
72941;SDS011;69665;55.822;37.330;2023-09-19T01:04:55;17.40;;;7.90;;
72941;SDS011;69665;55.822;37.330;2023-09-19T01:07:21;15.82;;;8.38;;
72941;SDS011;69665;55.822;37.330;2023-09-19T01:09:49;16.35;;;8.80;;
72941;SDS011;69665;55.822;37.330;2023-09-19T01:12:16;16.55;;;8.43;;
72941;SDS011;69665;55.822;37.330;2023-09-19T01:14:56;13.73;;;7.82;;
72941;SDS011;69665;55.822;37.330;2023-09-19T01:17:30;14.20;;;7.93;;
72941;SDS011;69665;55.822;37.330;2023-09-19T01:22:44;15.15;;;8.07;;
72941;SDS011;69665;55.822;37.330;2023-09-19T01:30:43;18.40;;;8.68;;
72941;SDS011;69665;55.822;37.330;2023-09-19T01:33:09;16.65;;;8.02;;
72941;SDS011;69665;55.822;37.330;2023-09-19T01:35:39;19.10;;;8.25;;
72941;SDS011;69665;55.822;37.330;2023-09-19T01:38:07;16.70;;;9.05;;
72941;SDS011;69665;55.822;37.330;2023-09-19T01:40:43;14.50;;;8.82;;
72941;SDS011;69665;55.822;37.330;2023-09-19T01:48:20;18.50;;;9.18;;
72941;SDS011;69665;55.822;37.330;2023-09-19T01:53:27;16.08;;;8.60;;
72941;SDS011;69665;55.822;37.330;2023-09-19T01:55:56;14.85;;;8.95;;
72941;SDS011;69665;55.822;37.330;2023-09-19T01:58:39;18.67;;;9.52;;
72941;SDS011;69665;55.822;37.330;2023-09-19T02:01:08;18.33;;;8.98;;
72941;SDS011;69665;55.822;37.330;2023-09-19T02:03:36;15.63;;;8.63;;
72941;SDS011;69665;55.822;37.330;2023-09-19T02:06:03;20.17;;;9.30;;
72941;SDS011;69665;55.822;37.330;2023-09-19T02:08:30;16.85;;;8.98;;
72941;SDS011;69665;55.822;37.330;2023-09-19T02:10:58;20.08;;;9.70;;
72941;SDS011;69665;55.822;37.330;2023-09-19T02:13:25;17.27;;;9.82;;
72941;SDS011;69665;55.822;37.330;2023-09-19T02:15:54;19.48;;;8.82;;
72941;SDS011;69665;55.822;37.330;2023-09-19T02:18:21;17.60;;;9.57;;
72941;SDS011;69665;55.822;37.330;2023-09-19T02:20:47;17.35;;;8.85;;
72941;SDS011;69665;55.822;37.330;2023-09-19T02:23:13;18.33;;;8.82;;
72941;SDS011;69665;55.822;37.330;2023-09-19T02:25:38;17.73;;;9.45;;
72941;SDS011;69665;55.822;37.330;2023-09-19T02:28:07;18.52;;;8.88;;
72941;SDS011;69665;55.822;37.330;2023-09-19T02:30:34;19.88;;;10.20;;
72941;SDS011;69665;55.822;37.330;2023-09-19T02:33:01;19.42;;;9.70;;
72941;SDS011;69665;55.822;37.330;2023-09-19T02:35:27;17.20;;;9.20;;
72941;SDS011;69665;55.822;37.330;2023-09-19T02:37:53;17.63;;;9.40;;
72941;SDS011;69665;55.822;37.330;2023-09-19T02:40:19;16.95;;;10.13;;
72941;SDS011;69665;55.822;37.330;2023-09-19T02:42:49;18.85;;;9.05;;
72941;SDS011;69665;55.822;37.330;2023-09-19T02:45:18;17.80;;;8.88;;
72941;SDS011;69665;55.822;37.330;2023-09-19T02:47:44;18.45;;;10.20;;
72941;SDS011;69665;55.822;37.330;2023-09-19T02:50:10;19.58;;;8.73;;
72941;SDS011;69665;55.822;37.330;2023-09-19T02:52:43;20.80;;;10.18;;
72941;SDS011;69665;55.822;37.330;2023-09-19T02:55:09;18.88;;;9.15;;
72941;SDS011;69665;55.822;37.330;2023-09-19T02:57:35;17.73;;;8.88;;
72941;SDS011;69665;55.822;37.330;2023-09-19T03:00:07;15.93;;;8.95;;
72941;SDS011;69665;55.822;37.330;2023-09-19T03:02:36;15.93;;;8.20;;
72941;SDS011;69665;55.822;37.330;2023-09-19T03:05:03;18.15;;;8.18;;
72941;SDS011;69665;55.822;37.330;2023-09-19T03:07:29;19.75;;;9.35;;
72941;SDS011;69665;55.822;37.330;2023-09-19T03:09:55;17.35;;;8.88;;
72941;SDS011;69665;55.822;37.330;2023-09-19T03:12:23;20.65;;;10.35;;
72941;SDS011;69665;55.822;37.330;2023-09-19T03:14:49;14.77;;;8.63;;
72941;SDS011;69665;55.822;37.330;2023-09-19T03:17:16;17.05;;;9.45;;
72941;SDS011;69665;55.822;37.330;2023-09-19T03:19:42;15.95;;;8.75;;
72941;SDS011;69665;55.822;37.330;2023-09-19T03:22:08;18.05;;;8.95;;
72941;SDS011;69665;55.822;37.330;2023-09-19T03:24:33;17.00;;;9.88;;
72941;SDS011;69665;55.822;37.330;2023-09-19T03:27:02;20.40;;;9.52;;
72941;SDS011;69665;55.822;37.330;2023-09-19T03:29:29;16.75;;;9.10;;
72941;SDS011;69665;55.822;37.330;2023-09-19T03:31:54;17.27;;;9.25;;
72941;SDS011;69665;55.822;37.330;2023-09-19T03:34:23;16.98;;;9.05;;
72941;SDS011;69665;55.822;37.330;2023-09-19T03:36:49;16.83;;;9.68;;
72941;SDS011;69665;55.822;37.330;2023-09-19T03:39:14;19.60;;;10.32;;
72941;SDS011;69665;55.822;37.330;2023-09-19T03:41:42;16.10;;;8.82;;
72941;SDS011;69665;55.822;37.330;2023-09-19T03:44:08;18.17;;;9.50;;
72941;SDS011;69665;55.822;37.330;2023-09-19T03:46:33;20.00;;;10.30;;
72941;SDS011;69665;55.822;37.330;2023-09-19T03:49:00;20.60;;;9.63;;
72941;SDS011;69665;55.822;37.330;2023-09-19T03:51:26;18.08;;;9.05;;
72941;SDS011;69665;55.822;37.330;2023-09-19T03:53:52;20.25;;;10.05;;
72941;SDS011;69665;55.822;37.330;2023-09-19T03:56:17;20.40;;;9.77;;
72941;SDS011;69665;55.822;37.330;2023-09-19T03:58:43;17.52;;;9.20;;
72941;SDS011;69665;55.822;37.330;2023-09-19T04:01:08;20.63;;;9.88;;
72941;SDS011;69665;55.822;37.330;2023-09-19T04:03:34;22.70;;;10.50;;
72941;SDS011;69665;55.822;37.330;2023-09-19T04:06:10;21.15;;;10.68;;
72941;SDS011;69665;55.822;37.330;2023-09-19T04:08:36;24.92;;;11.95;;
72941;SDS011;69665;55.822;37.330;2023-09-19T04:11:01;17.42;;;9.82;;
72941;SDS011;69665;55.822;37.330;2023-09-19T04:13:27;17.98;;;9.23;;
72941;SDS011;69665;55.822;37.330;2023-09-19T04:15:53;20.02;;;10.98;;
72941;SDS011;69665;55.822;37.330;2023-09-19T04:18:19;23.25;;;11.38;;
72941;SDS011;69665;55.822;37.330;2023-09-19T04:20:49;23.02;;;13.27;;
72941;SDS011;69665;55.822;37.330;2023-09-19T04:23:15;22.52;;;11.50;;
72941;SDS011;69665;55.822;37.330;2023-09-19T04:25:40;19.02;;;10.98;;
72941;SDS011;69665;55.822;37.330;2023-09-19T04:28:06;22.48;;;10.57;;
72941;SDS011;69665;55.822;37.330;2023-09-19T04:30:31;21.58;;;12.00;;
72941;SDS011;69665;55.822;37.330;2023-09-19T04:32:57;20.83;;;11.40;;
72941;SDS011;69665;55.822;37.330;2023-09-19T04:35:23;22.17;;;12.75;;
72941;SDS011;69665;55.822;37.330;2023-09-19T04:37:48;22.33;;;12.73;;
72941;SDS011;69665;55.822;37.330;2023-09-19T04:40:15;24.90;;;14.00;;
72941;SDS011;69665;55.822;37.330;2023-09-19T04:42:43;23.83;;;13.45;;
72941;SDS011;69665;55.822;37.330;2023-09-19T04:45:08;22.20;;;13.63;;
72941;SDS011;69665;55.822;37.330;2023-09-19T04:47:35;28.90;;;14.15;;
72941;SDS011;69665;55.822;37.330;2023-09-19T04:50:01;27.13;;;13.73;;
72941;SDS011;69665;55.822;37.330;2023-09-19T04:52:26;26.75;;;15.38;;
72941;SDS011;69665;55.822;37.330;2023-09-19T04:54:52;30.25;;;16.98;;
72941;SDS011;69665;55.822;37.330;2023-09-19T04:57:17;31.77;;;16.98;;
72941;SDS011;69665;55.822;37.330;2023-09-19T04:59:43;30.05;;;16.63;;
72941;SDS011;69665;55.822;37.330;2023-09-19T05:02:08;29.27;;;16.17;;
72941;SDS011;69665;55.822;37.330;2023-09-19T05:04:34;28.17;;;15.57;;
72941;SDS011;69665;55.822;37.330;2023-09-19T05:07:00;26.73;;;15.98;;
72941;SDS011;69665;55.822;37.330;2023-09-19T05:09:28;25.17;;;14.60;;
72941;SDS011;69665;55.822;37.330;2023-09-19T05:11:54;25.38;;;14.65;;
72941;SDS011;69665;55.822;37.330;2023-09-19T05:14:19;30.60;;;16.33;;
72941;SDS011;69665;55.822;37.330;2023-09-19T05:16:46;27.42;;;15.88;;
72941;SDS011;69665;55.822;37.330;2023-09-19T05:19:12;28.38;;;16.27;;
72941;SDS011;69665;55.822;37.330;2023-09-19T05:21:37;28.80;;;15.68;;
72941;SDS011;69665;55.822;37.330;2023-09-19T05:24:07;24.92;;;14.15;;
72941;SDS011;69665;55.822;37.330;2023-09-19T05:26:32;28.17;;;14.75;;
72941;SDS011;69665;55.822;37.330;2023-09-19T05:28:58;22.65;;;13.13;;
72941;SDS011;69665;55.822;37.330;2023-09-19T05:31:23;23.02;;;12.95;;
72941;SDS011;69665;55.822;37.330;2023-09-19T05:33:49;23.60;;;12.98;;
72941;SDS011;69665;55.822;37.330;2023-09-19T05:36:15;23.55;;;13.15;;
72941;SDS011;69665;55.822;37.330;2023-09-19T05:38:41;19.52;;;13.10;;
72941;SDS011;69665;55.822;37.330;2023-09-19T05:41:07;17.83;;;11.57;;
72941;SDS011;69665;55.822;37.330;2023-09-19T05:43:34;20.02;;;12.93;;
72941;SDS011;69665;55.822;37.330;2023-09-19T05:46:03;19.35;;;12.52;;
72941;SDS011;69665;55.822;37.330;2023-09-19T05:48:28;22.25;;;13.05;;
72941;SDS011;69665;55.822;37.330;2023-09-19T05:50:54;21.10;;;12.70;;
72941;SDS011;69665;55.822;37.330;2023-09-19T05:53:19;19.98;;;12.57;;
72941;SDS011;69665;55.822;37.330;2023-09-19T05:55:45;18.67;;;12.93;;
72941;SDS011;69665;55.822;37.330;2023-09-19T05:58:11;18.25;;;11.88;;
72941;SDS011;69665;55.822;37.330;2023-09-19T06:00:42;17.40;;;11.93;;
72941;SDS011;69665;55.822;37.330;2023-09-19T06:03:09;23.95;;;13.18;;
72941;SDS011;69665;55.822;37.330;2023-09-19T06:05:35;21.73;;;13.75;;
72941;SDS011;69665;55.822;37.330;2023-09-19T06:08:00;18.67;;;12.27;;
72941;SDS011;69665;55.822;37.330;2023-09-19T06:10:26;19.63;;;13.23;;
72941;SDS011;69665;55.822;37.330;2023-09-19T06:12:53;22.45;;;13.73;;
72941;SDS011;69665;55.822;37.330;2023-09-19T06:15:21;21.95;;;13.25;;
72941;SDS011;69665;55.822;37.330;2023-09-19T06:17:49;17.75;;;12.27;;
72941;SDS011;69665;55.822;37.330;2023-09-19T06:20:15;21.15;;;13.90;;
72941;SDS011;69665;55.822;37.330;2023-09-19T06:22:42;18.52;;;13.15;;
72941;SDS011;69665;55.822;37.330;2023-09-19T06:25:12;21.35;;;13.05;;
72941;SDS011;69665;55.822;37.330;2023-09-19T06:27:41;18.90;;;12.98;;
72941;SDS011;69665;55.822;37.330;2023-09-19T06:30:08;25.25;;;13.65;;
72941;SDS011;69665;55.822;37.330;2023-09-19T06:32:34;22.38;;;14.05;;
72941;SDS011;69665;55.822;37.330;2023-09-19T06:35:00;19.83;;;13.65;;
72941;SDS011;69665;55.822;37.330;2023-09-19T06:37:29;22.25;;;13.15;;
72941;SDS011;69665;55.822;37.330;2023-09-19T06:39:57;21.05;;;12.82;;
72941;SDS011;69665;55.822;37.330;2023-09-19T06:42:22;21.88;;;13.65;;
72941;SDS011;69665;55.822;37.330;2023-09-19T06:44:48;21.13;;;13.23;;
72941;SDS011;69665;55.822;37.330;2023-09-19T06:47:14;27.63;;;14.25;;
72941;SDS011;69665;55.822;37.330;2023-09-19T06:49:41;21.65;;;12.90;;
72941;SDS011;69665;55.822;37.330;2023-09-19T06:52:09;23.60;;;13.48;;
72941;SDS011;69665;55.822;37.330;2023-09-19T06:54:35;23.85;;;13.10;;
72941;SDS011;69665;55.822;37.330;2023-09-19T06:57:01;19.15;;;11.88;;
72941;SDS011;69665;55.822;37.330;2023-09-19T06:59:26;22.17;;;13.32;;
72941;SDS011;69665;55.822;37.330;2023-09-19T07:01:52;18.38;;;12.13;;
72941;SDS011;69665;55.822;37.330;2023-09-19T07:04:18;20.23;;;13.50;;
72941;SDS011;69665;55.822;37.330;2023-09-19T07:06:54;24.23;;;12.23;;
72941;SDS011;69665;55.822;37.330;2023-09-19T07:09:19;21.35;;;13.30;;
72941;SDS011;69665;55.822;37.330;2023-09-19T07:11:45;19.20;;;12.88;;
72941;SDS011;69665;55.822;37.330;2023-09-19T07:14:10;21.75;;;13.23;;
72941;SDS011;69665;55.822;37.330;2023-09-19T07:16:39;19.13;;;12.77;;
72941;SDS011;69665;55.822;37.330;2023-09-19T07:19:08;21.30;;;13.10;;
72941;SDS011;69665;55.822;37.330;2023-09-19T07:21:33;22.30;;;12.95;;
72941;SDS011;69665;55.822;37.330;2023-09-19T07:24:02;21.27;;;12.88;;
72941;SDS011;69665;55.822;37.330;2023-09-19T07:26:31;22.58;;;12.75;;
72941;SDS011;69665;55.822;37.330;2023-09-19T07:28:56;20.70;;;11.43;;
72941;SDS011;69665;55.822;37.330;2023-09-19T07:31:23;22.10;;;12.70;;
72941;SDS011;69665;55.822;37.330;2023-09-19T07:33:50;23.48;;;13.70;;
72941;SDS011;69665;55.822;37.330;2023-09-19T07:36:16;19.23;;;12.85;;
72941;SDS011;69665;55.822;37.330;2023-09-19T07:38:41;21.60;;;13.27;;
72941;SDS011;69665;55.822;37.330;2023-09-19T07:41:07;21.35;;;12.60;;
72941;SDS011;69665;55.822;37.330;2023-09-19T07:43:37;25.00;;;13.50;;
72941;SDS011;69665;55.822;37.330;2023-09-19T07:46:05;22.80;;;13.20;;
72941;SDS011;69665;55.822;37.330;2023-09-19T07:48:34;22.58;;;13.73;;
72941;SDS011;69665;55.822;37.330;2023-09-19T07:51:04;19.92;;;13.25;;
72941;SDS011;69665;55.822;37.330;2023-09-19T07:53:32;24.73;;;13.60;;
72941;SDS011;69665;55.822;37.330;2023-09-19T07:56:06;21.20;;;13.50;;
72941;SDS011;69665;55.822;37.330;2023-09-19T07:58:33;20.92;;;14.55;;
72941;SDS011;69665;55.822;37.330;2023-09-19T08:01:06;23.58;;;13.60;;
72941;SDS011;69665;55.822;37.330;2023-09-19T08:03:32;22.80;;;13.23;;
72941;SDS011;69665;55.822;37.330;2023-09-19T08:05:58;26.13;;;14.70;;
72941;SDS011;69665;55.822;37.330;2023-09-19T08:08:23;28.80;;;14.32;;
72941;SDS011;69665;55.822;37.330;2023-09-19T08:10:53;55.13;;;42.08;;
72941;SDS011;69665;55.822;37.330;2023-09-19T08:15:44;26.05;;;13.85;;
72941;SDS011;69665;55.822;37.330;2023-09-19T08:18:09;27.20;;;14.57;;
72941;SDS011;69665;55.822;37.330;2023-09-19T08:20:37;28.40;;;14.75;;
72941;SDS011;69665;55.822;37.330;2023-09-19T08:23:03;29.00;;;15.77;;
72941;SDS011;69665;55.822;37.330;2023-09-19T08:25:31;25.05;;;15.52;;
72941;SDS011;69665;55.822;37.330;2023-09-19T08:27:57;26.75;;;15.95;;
72941;SDS011;69665;55.822;37.330;2023-09-19T08:30:25;27.45;;;14.55;;
72941;SDS011;69665;55.822;37.330;2023-09-19T08:32:58;24.23;;;13.80;;
72941;SDS011;69665;55.822;37.330;2023-09-19T08:35:24;22.25;;;14.48;;
72941;SDS011;69665;55.822;37.330;2023-09-19T08:37:50;30.33;;;15.23;;
72941;SDS011;69665;55.822;37.330;2023-09-19T08:40:16;25.48;;;14.63;;
72941;SDS011;69665;55.822;37.330;2023-09-19T08:42:49;22.55;;;14.13;;
72941;SDS011;69665;55.822;37.330;2023-09-19T08:45:15;24.92;;;14.55;;
72941;SDS011;69665;55.822;37.330;2023-09-19T08:48:26;27.60;;;14.43;;
72941;SDS011;69665;55.822;37.330;2023-09-19T08:50:28;29.80;;;15.07;;
72941;SDS011;69665;55.822;37.330;2023-09-19T08:53:00;26.13;;;14.20;;
72941;SDS011;69665;55.822;37.330;2023-09-19T08:55:29;28.23;;;14.13;;
72941;SDS011;69665;55.822;37.330;2023-09-19T08:57:59;29.40;;;16.55;;
72941;SDS011;69665;55.822;37.330;2023-09-19T09:00:26;23.90;;;13.75;;
72941;SDS011;69665;55.822;37.330;2023-09-19T09:02:52;23.10;;;14.23;;
72941;SDS011;69665;55.822;37.330;2023-09-19T09:05:19;28.52;;;14.50;;
72941;SDS011;69665;55.822;37.330;2023-09-19T09:07:48;24.55;;;14.82;;
72941;SDS011;69665;55.822;37.330;2023-09-19T09:10:15;25.75;;;15.02;;
72941;SDS011;69665;55.822;37.330;2023-09-19T09:12:41;25.95;;;15.25;;
72941;SDS011;69665;55.822;37.330;2023-09-19T09:15:08;24.58;;;14.50;;
72941;SDS011;69665;55.822;37.330;2023-09-19T09:17:37;28.20;;;15.48;;
72941;SDS011;69665;55.822;37.330;2023-09-19T09:20:02;23.23;;;15.23;;
72941;SDS011;69665;55.822;37.330;2023-09-19T09:22:30;26.77;;;15.02;;
72941;SDS011;69665;55.822;37.330;2023-09-19T09:24:57;28.08;;;15.98;;
72941;SDS011;69665;55.822;37.330;2023-09-19T09:27:30;28.23;;;14.85;;
72941;SDS011;69665;55.822;37.330;2023-09-19T09:29:58;28.27;;;15.45;;
72941;SDS011;69665;55.822;37.330;2023-09-19T09:32:27;23.92;;;14.85;;
72941;SDS011;69665;55.822;37.330;2023-09-19T09:34:57;27.52;;;15.93;;
72941;SDS011;69665;55.822;37.330;2023-09-19T09:37:23;27.40;;;15.38;;
72941;SDS011;69665;55.822;37.330;2023-09-19T09:39:57;23.90;;;14.13;;
72941;SDS011;69665;55.822;37.330;2023-09-19T09:42:31;26.58;;;17.27;;
72941;SDS011;69665;55.822;37.330;2023-09-19T09:45:19;22.52;;;14.93;;
72941;SDS011;69665;55.822;37.330;2023-09-19T09:50:25;24.90;;;13.73;;
72941;SDS011;69665;55.822;37.330;2023-09-19T09:52:57;27.13;;;15.93;;
72941;SDS011;69665;55.822;37.330;2023-09-19T09:55:36;25.70;;;15.68;;
72941;SDS011;69665;55.822;37.330;2023-09-19T09:58:17;25.20;;;15.27;;
72941;SDS011;69665;55.822;37.330;2023-09-19T10:00:53;27.73;;;15.82;;
72941;SDS011;69665;55.822;37.330;2023-09-19T10:03:30;22.80;;;14.88;;
72941;SDS011;69665;55.822;37.330;2023-09-19T10:05:57;26.00;;;15.35;;
72941;SDS011;69665;55.822;37.330;2023-09-19T10:08:23;23.77;;;15.23;;
72941;SDS011;69665;55.822;37.330;2023-09-19T10:10:49;24.50;;;14.65;;
72941;SDS011;69665;55.822;37.330;2023-09-19T10:13:18;36.13;;;21.35;;
72941;SDS011;69665;55.822;37.330;2023-09-19T10:15:50;26.25;;;15.85;;
72941;SDS011;69665;55.822;37.330;2023-09-19T10:18:20;26.55;;;14.75;;
72941;SDS011;69665;55.822;37.330;2023-09-19T10:20:49;23.60;;;15.52;;
72941;SDS011;69665;55.822;37.330;2023-09-19T10:23:17;30.63;;;15.98;;
72941;SDS011;69665;55.822;37.330;2023-09-19T10:25:48;27.52;;;15.60;;
72941;SDS011;69665;55.822;37.330;2023-09-19T10:28:14;28.27;;;16.50;;
72941;SDS011;69665;55.822;37.330;2023-09-19T10:30:44;25.65;;;14.93;;
72941;SDS011;69665;55.822;37.330;2023-09-19T10:33:14;27.65;;;15.20;;
72941;SDS011;69665;55.822;37.330;2023-09-19T10:35:44;23.95;;;14.73;;
72941;SDS011;69665;55.822;37.330;2023-09-19T10:38:10;31.08;;;16.13;;
72941;SDS011;69665;55.822;37.330;2023-09-19T10:40:36;29.98;;;15.73;;
72941;SDS011;69665;55.822;37.330;2023-09-19T10:45:34;23.88;;;13.60;;
72941;SDS011;69665;55.822;37.330;2023-09-19T10:48:00;29.58;;;15.20;;
72941;SDS011;69665;55.822;37.330;2023-09-19T10:50:28;25.17;;;14.63;;
72941;SDS011;69665;55.822;37.330;2023-09-19T10:52:56;25.73;;;15.85;;
72941;SDS011;69665;55.822;37.330;2023-09-19T10:55:30;26.92;;;15.15;;
72941;SDS011;69665;55.822;37.330;2023-09-19T10:57:56;25.20;;;15.32;;
72941;SDS011;69665;55.822;37.330;2023-09-19T11:00:51;27.50;;;14.80;;
72941;SDS011;69665;55.822;37.330;2023-09-19T11:03:18;28.05;;;17.52;;
72941;SDS011;69665;55.822;37.330;2023-09-19T11:06:08;26.17;;;15.85;;
72941;SDS011;69665;55.822;37.330;2023-09-19T11:08:51;26.15;;;15.35;;
72941;SDS011;69665;55.822;37.330;2023-09-19T11:22:18;26.50;;;15.43;;
72941;SDS011;69665;55.822;37.330;2023-09-19T11:24:44;25.63;;;15.00;;
72941;SDS011;69665;55.822;37.330;2023-09-19T11:27:11;27.02;;;15.38;;
72941;SDS011;69665;55.822;37.330;2023-09-19T11:29:39;23.52;;;15.85;;
72941;SDS011;69665;55.822;37.330;2023-09-19T11:32:05;27.38;;;15.20;;
72941;SDS011;69665;55.822;37.330;2023-09-19T11:34:38;24.55;;;15.23;;
72941;SDS011;69665;55.822;37.330;2023-09-19T11:39:37;25.58;;;14.85;;
72941;SDS011;69665;55.822;37.330;2023-09-19T11:44:32;27.87;;;13.80;;
72941;SDS011;69665;55.822;37.330;2023-09-19T11:47:04;25.00;;;14.57;;
72941;SDS011;69665;55.822;37.330;2023-09-19T11:49:33;26.90;;;16.00;;
72941;SDS011;69665;55.822;37.330;2023-09-19T11:52:00;23.15;;;13.68;;
72941;SDS011;69665;55.822;37.330;2023-09-19T11:54:34;23.73;;;15.27;;
72941;SDS011;69665;55.822;37.330;2023-09-19T11:57:01;26.10;;;15.85;;
72941;SDS011;69665;55.822;37.330;2023-09-19T11:59:28;24.75;;;14.20;;
72941;SDS011;69665;55.822;37.330;2023-09-19T12:01:55;29.25;;;15.13;;
72941;SDS011;69665;55.822;37.330;2023-09-19T12:04:40;24.73;;;14.80;;
72941;SDS011;69665;55.822;37.330;2023-09-19T12:07:09;24.77;;;13.82;;
72941;SDS011;69665;55.822;37.330;2023-09-19T12:09:43;28.92;;;13.90;;
72941;SDS011;69665;55.822;37.330;2023-09-19T12:12:19;25.27;;;14.35;;
72941;SDS011;69665;55.822;37.330;2023-09-19T12:14:49;27.05;;;14.52;;
72941;SDS011;69665;55.822;37.330;2023-09-19T12:17:14;24.95;;;14.05;;
72941;SDS011;69665;55.822;37.330;2023-09-19T12:19:49;26.52;;;16.55;;
72941;SDS011;69665;55.822;37.330;2023-09-19T12:22:15;27.67;;;13.80;;
72941;SDS011;69665;55.822;37.330;2023-09-19T12:24:41;26.23;;;14.68;;
72941;SDS011;69665;55.822;37.330;2023-09-19T12:27:09;28.42;;;14.75;;
72941;SDS011;69665;55.822;37.330;2023-09-19T12:29:47;26.10;;;14.80;;
72941;SDS011;69665;55.822;37.330;2023-09-19T12:32:33;23.02;;;13.38;;
72941;SDS011;69665;55.822;37.330;2023-09-19T12:34:59;22.42;;;12.88;;
72941;SDS011;69665;55.822;37.330;2023-09-19T12:37:25;26.63;;;14.05;;
72941;SDS011;69665;55.822;37.330;2023-09-19T12:40:03;23.70;;;14.07;;
72941;SDS011;69665;55.822;37.330;2023-09-19T12:42:40;28.13;;;13.50;;
72941;SDS011;69665;55.822;37.330;2023-09-19T12:45:07;23.23;;;14.20;;
72941;SDS011;69665;55.822;37.330;2023-09-19T12:47:34;21.90;;;12.68;;
72941;SDS011;69665;55.822;37.330;2023-09-19T12:50:06;26.52;;;12.68;;
72941;SDS011;69665;55.822;37.330;2023-09-19T12:52:36;23.90;;;13.55;;
72941;SDS011;69665;55.822;37.330;2023-09-19T12:55:01;31.08;;;13.38;;
72941;SDS011;69665;55.822;37.330;2023-09-19T12:57:28;21.27;;;12.43;;
72941;SDS011;69665;55.822;37.330;2023-09-19T12:59:56;19.92;;;12.32;;
72941;SDS011;69665;55.822;37.330;2023-09-19T13:02:23;18.52;;;11.95;;
72941;SDS011;69665;55.822;37.330;2023-09-19T13:04:54;21.40;;;11.90;;
72941;SDS011;69665;55.822;37.330;2023-09-19T13:07:43;24.90;;;13.63;;
72941;SDS011;69665;55.822;37.330;2023-09-19T13:10:11;21.65;;;11.35;;
72941;SDS011;69665;55.822;37.330;2023-09-19T13:12:40;24.45;;;11.95;;
72941;SDS011;69665;55.822;37.330;2023-09-19T13:15:08;21.15;;;12.27;;
72941;SDS011;69665;55.822;37.330;2023-09-19T13:17:47;20.92;;;10.98;;
72941;SDS011;69665;55.822;37.330;2023-09-19T13:22:57;19.25;;;10.80;;
72941;SDS011;69665;55.822;37.330;2023-09-19T13:25:31;19.83;;;9.07;;
72941;SDS011;69665;55.822;37.330;2023-09-19T13:28:15;14.35;;;7.07;;
72941;SDS011;69665;55.822;37.330;2023-09-19T13:30:41;14.15;;;7.05;;
72941;SDS011;69665;55.822;37.330;2023-09-19T13:33:12;14.38;;;6.93;;
72941;SDS011;69665;55.822;37.330;2023-09-19T13:35:44;10.77;;;5.82;;
72941;SDS011;69665;55.822;37.330;2023-09-19T13:38:10;10.90;;;5.72;;
72941;SDS011;69665;55.822;37.330;2023-09-19T13:40:38;9.60;;;5.60;;
72941;SDS011;69665;55.822;37.330;2023-09-19T13:43:05;9.82;;;5.55;;
72941;SDS011;69665;55.822;37.330;2023-09-19T13:45:35;9.98;;;5.80;;
72941;SDS011;69665;55.822;37.330;2023-09-19T13:48:01;11.43;;;5.03;;
72941;SDS011;69665;55.822;37.330;2023-09-19T13:50:28;13.60;;;5.80;;
72941;SDS011;69665;55.822;37.330;2023-09-19T13:52:55;11.23;;;5.80;;
72941;SDS011;69665;55.822;37.330;2023-09-19T13:55:21;10.80;;;5.80;;
72941;SDS011;69665;55.822;37.330;2023-09-19T13:57:49;8.77;;;4.82;;
72941;SDS011;69665;55.822;37.330;2023-09-19T14:00:24;10.63;;;5.28;;
72941;SDS011;69665;55.822;37.330;2023-09-19T14:02:50;10.27;;;5.07;;
72941;SDS011;69665;55.822;37.330;2023-09-19T14:05:18;9.68;;;5.63;;
72941;SDS011;69665;55.822;37.330;2023-09-19T14:07:46;9.65;;;5.10;;
72941;SDS011;69665;55.822;37.330;2023-09-19T14:10:11;11.43;;;5.40;;
72941;SDS011;69665;55.822;37.330;2023-09-19T14:12:37;8.93;;;5.68;;
72941;SDS011;69665;55.822;37.330;2023-09-19T14:15:04;10.55;;;5.20;;
72941;SDS011;69665;55.822;37.330;2023-09-19T14:17:31;10.85;;;5.32;;
72941;SDS011;69665;55.822;37.330;2023-09-19T14:19:56;11.40;;;5.60;;
72941;SDS011;69665;55.822;37.330;2023-09-19T14:22:25;11.48;;;5.50;;
72941;SDS011;69665;55.822;37.330;2023-09-19T14:24:50;14.45;;;5.57;;
72941;SDS011;69665;55.822;37.330;2023-09-19T14:27:17;10.73;;;5.65;;
72941;SDS011;69665;55.822;37.330;2023-09-19T14:29:42;11.93;;;6.38;;
72941;SDS011;69665;55.822;37.330;2023-09-19T14:32:08;10.45;;;5.63;;
72941;SDS011;69665;55.822;37.330;2023-09-19T14:34:34;10.52;;;5.68;;
72941;SDS011;69665;55.822;37.330;2023-09-19T14:37:01;10.50;;;5.75;;
72941;SDS011;69665;55.822;37.330;2023-09-19T14:39:27;12.15;;;6.63;;
72941;SDS011;69665;55.822;37.330;2023-09-19T14:41:53;12.13;;;6.85;;
72941;SDS011;69665;55.822;37.330;2023-09-19T14:44:19;18.65;;;7.82;;
72941;SDS011;69665;55.822;37.330;2023-09-19T14:46:45;11.30;;;5.90;;
72941;SDS011;69665;55.822;37.330;2023-09-19T14:49:10;19.23;;;6.60;;
72941;SDS011;69665;55.822;37.330;2023-09-19T14:51:37;12.55;;;6.32;;
72941;SDS011;69665;55.822;37.330;2023-09-19T14:54:04;16.48;;;6.22;;
72941;SDS011;69665;55.822;37.330;2023-09-19T14:56:30;14.90;;;6.63;;
72941;SDS011;69665;55.822;37.330;2023-09-19T14:58:56;13.25;;;6.05;;
72941;SDS011;69665;55.822;37.330;2023-09-19T15:01:25;11.93;;;6.25;;